Time;durP1;ratioP1;P1;durP2;ratioP2;P2;SDS_P1;SDS_P2;PMS_P1;PMS_P2;Temp;Humidity;BMP_temperature;BMP_pressure;BME280_temperature;BME280_humidity;BME280_pressure;Samples;Min_cycle;Max_cycle;Signal;HPM_P1;HPM_P2
2021/11/17 02:25:55;;;;;;;31.30;15.87;;;;;;;3.88;100.00;101115.81;5044243;28;20230;-90
2021/11/17 02:28:41;;;;;;;31.60;16.90;;;;;;;3.90;100.00;101120.09;5043467;28;20234;-86
2021/11/17 02:31:33;;;;;;;30.83;17.07;;;;;;;3.90;100.00;101120.09;5092787;28;20474;-85
2021/11/17 02:34:24;;;;;;;29.83;15.90;;;;;;;3.91;100.00;101118.41;5079518;28;20213;-87
2021/11/17 02:37:10;;;;;;;32.00;16.77;;;;;;;3.93;100.00;101119.28;5105799;28;20681;-85
2021/11/17 02:39:53;;;;;;;33.13;17.57;;;;;;;3.92;100.00;101113.28;5089126;28;20664;-84
2021/11/17 02:42:43;;;;;;;33.50;18.60;;;;;;;3.90;100.00;101112.38;5091420;28;20910;-86
2021/11/17 02:45:29;;;;;;;28.13;16.17;;;;;;;3.92;100.00;101117.56;5091245;28;20194;-85
2021/11/17 02:48:11;;;;;;;29.53;16.87;;;;;;;3.93;100.00;101120.16;5087686;28;20306;-86
2021/11/17 02:50:59;;;;;;;35.03;18.47;;;;;;;3.92;100.00;101118.44;5089228;28;20248;-89
2021/11/17 02:53:42;;;;;;;30.10;17.33;;;;;;;3.93;100.00;101120.16;5086243;28;20216;-83
2021/11/17 02:56:39;;;;;;;36.53;18.13;;;;;;;3.94;100.00;101119.31;5090687;28;20289;-87
2021/11/17 02:59:27;;;;;;;35.17;19.07;;;;;;;3.95;100.00;101117.59;5086158;28;20881;-87
2021/11/17 03:02:14;;;;;;;31.53;17.47;;;;;;;3.97;100.00;101121.03;5087854;28;21067;-86
2021/11/17 03:05:04;;;;;;;32.73;17.70;;;;;;;3.96;100.00;101112.44;5092001;28;20243;-85
2021/11/17 03:07:43;;;;;;;37.27;17.23;;;;;;;3.96;100.00;101116.75;5087192;28;20242;-85
2021/11/17 03:10:41;;;;;;;35.20;18.00;;;;;;;3.96;100.00;101116.75;5091377;28;20288;-85
2021/11/17 03:13:43;;;;;;;38.47;18.07;;;;;;;3.96;100.00;101109.84;5090208;28;20221;-89
2021/11/17 03:16:22;;;;;;;36.17;17.73;;;;;;;3.94;100.00;101116.72;5086210;28;20298;-85
2021/11/17 03:19:01;;;;;;;36.97;19.00;;;;;;;3.96;100.00;101116.75;5085799;28;20385;-85
2021/11/17 03:21:53;;;;;;;37.07;18.97;;;;;;;3.96;100.00;101112.44;5101220;27;20226;-85
2021/11/17 03:24:44;;;;;;;35.17;18.63;;;;;;;3.96;100.00;101104.69;5090204;28;20205;-85
2021/11/17 03:27:23;;;;;;;36.07;17.80;;;;;;;3.97;100.00;101115.88;5090408;28;20236;-85
2021/11/17 03:30:18;;;;;;;38.50;19.07;;;;;;;3.98;100.00;101117.63;5088258;28;20308;-84
2021/11/17 03:33:07;;;;;;;38.83;19.07;;;;;;;3.98;100.00;101115.91;5090698;28;20308;-85
2021/11/17 03:35:50;;;;;;;37.93;18.97;;;;;;;3.97;100.00;101113.28;5084783;28;20198;-91
2021/11/17 03:38:43;;;;;;;39.73;17.73;;;;;;;4.00;100.00;101112.47;5087029;28;20299;-84
2021/11/17 03:41:33;;;;;;;35.70;17.33;;;;;;;4.00;100.00;101107.31;5089451;28;20287;-83
2021/11/17 03:44:34;;;;;;;38.00;19.87;;;;;;;3.99;100.00;101111.59;5083359;28;20198;-84
2021/11/17 03:47:28;;;;;;;38.93;18.27;;;;;;;4.01;100.00;101106.44;5091767;28;20939;-85
2021/11/17 03:50:14;;;;;;;38.87;18.53;;;;;;;4.01;100.00;101109.03;5088238;28;20471;-83
2021/11/17 03:52:55;;;;;;;41.70;19.47;;;;;;;4.02;100.00;101108.19;5088167;28;20258;-86
2021/11/17 03:55:43;;;;;;;39.90;18.50;;;;;;;4.02;100.00;101106.47;5090487;28;20202;-85
2021/11/17 03:58:20;;;;;;;36.87;19.07;;;;;;;4.04;100.00;101107.34;5086694;28;20298;-85
2021/11/17 04:01:12;;;;;;;40.00;19.33;;;;;;;4.03;100.00;101097.88;5087523;28;20280;-86
2021/11/17 04:03:55;;;;;;;39.77;18.37;;;;;;;4.05;100.00;101103.06;5083788;28;20224;-83
2021/11/17 04:06:35;;;;;;;38.37;18.63;;;;;;;4.04;100.00;101101.31;5087273;28;20288;-88
2021/11/17 04:09:17;;;;;;;38.33;19.33;;;;;;;4.04;100.00;101099.59;5086051;28;20200;-84
2021/11/17 04:12:04;;;;;;;35.57;17.27;;;;;;;4.05;100.00;101098.75;5084962;28;20321;-87
2021/11/17 04:14:43;;;;;;;39.23;19.43;;;;;;;4.06;100.00;101097.88;5090469;28;20200;-84
2021/11/17 04:17:22;;;;;;;39.17;19.30;;;;;;;4.06;100.00;101097.88;5088038;28;20498;-84
2021/11/17 04:19:58;;;;;;;46.33;20.67;;;;;;;4.07;100.00;101103.94;5091630;28;20620;-86
2021/11/17 04:22:38;;;;;;;42.23;20.33;;;;;;;4.06;100.00;101102.19;5086726;28;20285;-87
2021/11/17 04:25:24;;;;;;;38.77;18.90;;;;;;;4.06;100.00;101099.59;5090240;28;20221;-85
2021/11/17 04:28:05;;;;;;;44.23;21.20;;;;;;;4.06;100.00;101094.44;5087878;28;20205;-87
2021/11/17 04:30:59;;;;;;;43.77;20.83;;;;;;;4.07;100.00;101099.63;5089009;28;20271;-86
2021/11/17 04:33:56;;;;;;;43.17;20.87;;;;;;;4.07;100.00;101088.44;5086814;28;20301;-85
2021/11/17 04:36:55;;;;;;;44.50;20.10;;;;;;;4.08;100.00;101091.03;5085882;28;20312;-88
2021/11/17 04:39:47;;;;;;;38.57;19.13;;;;;;;4.08;100.00;101090.16;5076224;28;20280;-87
2021/11/17 04:42:53;;;;;;;40.70;19.87;;;;;;;4.08;100.00;101083.31;5087530;28;20664;-86
2021/11/17 04:45:39;;;;;;;38.27;18.57;;;;;;;4.10;100.00;101083.31;5057774;28;20292;-86
2021/11/17 04:48:24;;;;;;;36.57;18.57;;;;;;;4.09;100.00;101085.00;5089220;28;20297;-86
2021/11/17 04:51:06;;;;;;;39.77;20.27;;;;;;;4.09;100.00;101085.00;5087418;28;20208;-85
2021/11/17 04:53:51;;;;;;;41.63;19.73;;;;;;;4.10;100.00;101083.31;5088635;28;20209;-84
2021/11/17 04:56:40;;;;;;;37.90;19.37;;;;;;;4.09;100.00;101081.56;5088637;28;20224;-89
2021/11/17 04:59:19;;;;;;;40.73;20.23;;;;;;;4.10;100.00;101080.75;5089467;28;20292;-86
2021/11/17 05:02:10;;;;;;;36.63;19.70;;;;;;;4.09;100.00;101081.56;5088598;28;20214;-86
2021/11/17 05:04:50;;;;;;;43.97;20.13;;;;;;;4.09;100.00;101082.44;5084818;28;20202;-86
2021/11/17 05:07:28;;;;;;;37.63;18.97;;;;;;;4.09;100.00;101084.16;5089866;28;20771;-88
2021/11/17 05:10:04;;;;;;;36.33;18.67;;;;;;;4.10;100.00;101085.91;5084233;28;20201;-85
2021/11/17 05:12:42;;;;;;;37.43;18.40;;;;;;;4.10;100.00;101085.91;5088834;28;20304;-86
2021/11/17 05:15:36;;;;;;;40.03;19.90;;;;;;;4.10;100.00;101089.34;5089077;28;20197;-85
2021/11/17 05:18:13;;;;;;;37.83;19.93;;;;;;;4.10;100.00;101080.75;5080064;28;20999;-86
2021/11/17 05:20:52;;;;;;;41.83;20.80;;;;;;;4.09;100.00;101094.47;5089641;28;20279;-91
2021/11/17 05:23:34;;;;;;;37.80;19.67;;;;;;;4.09;100.00;101095.34;5084397;28;20346;-88
2021/11/17 05:26:14;;;;;;;41.23;19.70;;;;;;;4.10;100.00;101098.81;5088589;28;20301;-85
2021/11/17 05:29:03;;;;;;;40.37;19.10;;;;;;;4.08;100.00;101101.38;5084866;28;20305;-87
2021/11/17 05:31:42;;;;;;;43.63;19.33;;;;;;;4.09;100.00;101100.50;5087084;28;20226;-83
2021/11/17 05:34:28;;;;;;;39.43;20.03;;;;;;;4.08;100.00;101101.38;5084212;28;20294;-87
2021/11/17 05:37:05;;;;;;;35.40;19.40;;;;;;;4.08;100.00;101098.78;5080967;28;20206;-84
2021/11/17 05:39:44;;;;;;;45.53;20.83;;;;;;;4.08;100.00;101101.38;5085529;28;20309;-85
2021/11/17 05:42:24;;;;;;;45.80;21.47;;;;;;;4.09;100.00;101105.66;5097828;28;20317;-90
2021/11/17 05:45:04;;;;;;;46.10;20.73;;;;;;;4.09;100.00;101100.50;5088493;28;20469;-86
2021/11/17 05:47:46;;;;;;;45.77;21.30;;;;;;;4.07;100.00;101094.47;5086720;28;20660;-84
2021/11/17 05:50:30;;;;;;;48.47;21.93;;;;;;;4.07;100.00;101099.63;5087405;28;20539;-84
2021/11/17 05:53:16;;;;;;;48.77;22.20;;;;;;;4.08;100.00;101100.47;5087636;28;20438;-84
2021/11/17 05:56:04;;;;;;;50.00;20.97;;;;;;;4.08;100.00;101100.47;5086095;28;20292;-85
2021/11/17 05:58:56;;;;;;;47.90;21.50;;;;;;;4.08;100.00;101097.91;5080475;28;20247;-84
2021/11/17 06:01:43;;;;;;;47.17;21.10;;;;;;;4.07;100.00;101104.78;5082021;28;20245;-87
2021/11/17 06:04:11;;;;;;;50.53;21.43;;;;;;;4.07;100.00;101109.94;5084774;28;20281;-88
2021/11/17 06:06:38;;;;;;;53.50;21.80;;;;;;;4.06;100.00;101108.22;5084650;28;20205;-84
2021/11/17 06:09:05;;;;;;;52.23;21.87;;;;;;;4.08;100.00;101115.97;5082962;28;20221;-88
2021/11/17 06:11:36;;;;;;;53.83;21.80;;;;;;;4.08;100.00;101116.84;5087756;28;20640;-86
2021/11/17 06:14:05;;;;;;;50.40;21.37;;;;;;;4.09;100.00;101120.28;5081985;28;20201;-85
2021/11/17 06:16:39;;;;;;;54.97;22.47;;;;;;;4.06;100.00;101115.94;5086406;28;20267;-85
2021/11/17 06:19:05;;;;;;;47.70;21.17;;;;;;;4.05;100.00;101121.97;5084844;28;20309;-88
2021/11/17 06:21:33;;;;;;;54.47;22.90;;;;;;;4.05;100.00;101121.13;5085942;28;20316;-83
2021/11/17 06:24:02;;;;;;;45.47;20.30;;;;;;;4.05;100.00;101123.72;5086585;28;20255;-83
2021/11/17 06:26:32;;;;;;;54.80;21.10;;;;;;;4.06;100.00;101120.25;5084385;28;20209;-83
2021/11/17 06:29:03;;;;;;;51.83;21.03;;;;;;;4.05;100.00;101119.41;5080538;28;20213;-83
2021/11/17 06:31:34;;;;;;;47.60;20.53;;;;;;;4.05;100.00;101123.72;5083867;28;20257;-84
2021/11/17 06:34:01;;;;;;;55.17;22.13;;;;;;;4.05;100.00;101128.88;5081023;28;20198;-86
2021/11/17 06:36:27;;;;;;;48.97;20.27;;;;;;;4.05;100.00;101127.13;5082998;28;20208;-84
2021/11/17 06:38:55;;;;;;;50.47;21.43;;;;;;;4.04;100.00;101127.97;5082856;28;20202;-84
2021/11/17 06:41:22;;;;;;;50.03;20.70;;;;;;;4.04;100.00;101127.97;5088819;28;20308;-86
2021/11/17 06:43:48;;;;;;;50.00;20.73;;;;;;;4.05;100.00;101129.72;5083690;28;20978;-85
2021/11/17 06:46:16;;;;;;;52.17;21.53;;;;;;;4.03;100.00;101122.81;5088033;28;20205;-84
2021/11/17 06:48:42;;;;;;;53.97;22.03;;;;;;;4.04;100.00;101129.69;5078433;28;20727;-85
2021/11/17 06:51:09;;;;;;;49.37;22.83;;;;;;;4.04;100.00;101135.72;5083414;28;20233;-85
2021/11/17 06:53:36;;;;;;;51.80;21.47;;;;;;;4.02;100.00;101137.44;5086020;28;20306;-87
2021/11/17 06:56:02;;;;;;;50.43;22.30;;;;;;;4.02;100.00;101132.28;5089852;28;20201;-85
2021/11/17 06:58:29;;;;;;;57.40;21.97;;;;;;;4.01;100.00;101146.03;5090797;28;20711;-87
2021/11/17 07:00:56;;;;;;;49.00;21.90;;;;;;;4.03;100.00;101138.28;5089940;28;20201;-85
2021/11/17 07:03:26;;;;;;;53.37;20.90;;;;;;;4.02;100.00;101145.16;5090833;28;20317;-85
2021/11/17 07:05:53;;;;;;;51.93;21.80;;;;;;;4.02;100.00;101155.50;5089177;28;20300;-85
2021/11/17 07:08:20;;;;;;;56.07;22.20;;;;;;;4.00;100.00;101156.34;5089752;28;20688;-83
2021/11/17 07:10:47;;;;;;;58.80;22.87;;;;;;;3.98;100.00;101148.59;5088286;28;20198;-85
2021/11/17 07:13:14;;;;;;;53.37;22.17;;;;;;;4.00;100.00;101146.03;5092430;28;20221;-87
2021/11/17 07:15:41;;;;;;;55.87;21.67;;;;;;;4.01;100.00;101146.03;5088846;28;20759;-84
2021/11/17 07:18:08;;;;;;;52.97;21.57;;;;;;;3.98;100.00;101144.28;5090473;28;20205;-86
2021/11/17 07:20:38;;;;;;;55.67;21.77;;;;;;;4.00;100.00;101149.47;5087333;28;20209;-85
2021/11/17 07:23:05;;;;;;;54.80;21.83;;;;;;;4.02;100.00;101149.47;5089558;28;20308;-84
2021/11/17 07:25:32;;;;;;;60.80;21.87;;;;;;;4.01;100.00;101150.31;5088193;28;20305;-86
2021/11/17 07:27:59;;;;;;;50.70;21.57;;;;;;;4.00;100.00;101152.03;5091949;28;20289;-83
2021/11/17 07:30:28;;;;;;;53.47;21.47;;;;;;;4.01;100.00;101161.53;5086516;28;20306;-90
2021/11/17 07:32:55;;;;;;;58.03;21.43;;;;;;;4.01;100.00;101156.34;5091989;28;20313;-86
2021/11/17 07:35:25;;;;;;;51.50;21.27;;;;;;;4.00;100.00;101154.63;5088552;28;20739;-86
2021/11/17 07:37:54;;;;;;;50.50;20.80;;;;;;;4.01;100.00;101153.78;5090842;28;20301;-87
2021/11/17 07:40:21;;;;;;;53.97;22.53;;;;;;;4.02;100.00;101160.66;5085044;28;20631;-84
2021/11/17 07:42:48;;;;;;;55.20;21.57;;;;;;;4.03;100.00;101171.81;5090638;28;20230;-85
2021/11/17 07:45:16;;;;;;;53.00;22.43;;;;;;;4.04;100.00;101161.53;5090379;28;20206;-84
2021/11/17 07:47:42;;;;;;;52.17;22.10;;;;;;;4.04;100.00;101166.69;5089521;28;20209;-86
2021/11/17 07:50:10;;;;;;;56.73;21.60;;;;;;;4.05;100.00;101167.56;5089981;28;20191;-86
2021/11/17 07:52:37;;;;;;;51.53;20.30;;;;;;;4.04;100.00;101166.69;5089568;28;20221;-85
2021/11/17 07:55:06;;;;;;;51.33;20.67;;;;;;;4.07;100.00;101168.44;5086423;28;20289;-84
2021/11/17 07:57:33;;;;;;;50.87;21.70;;;;;;;4.10;100.00;101173.66;5088531;28;20198;-83
2021/11/17 08:00:00;;;;;;;52.23;20.27;;;;;;;4.10;100.00;101177.09;5090259;28;20194;-84
2021/11/17 08:02:27;;;;;;;50.17;21.17;;;;;;;4.11;100.00;101175.34;5085387;28;20214;-85
2021/11/17 08:04:53;;;;;;;52.77;20.90;;;;;;;4.12;100.00;101180.53;5086201;28;20228;-83
2021/11/17 08:07:20;;;;;;;53.63;21.30;;;;;;;4.16;100.00;101178.84;5085746;28;20297;-84
2021/11/17 08:09:49;;;;;;;50.93;19.90;;;;;;;4.19;100.00;101173.72;5085110;28;20194;-86
2021/11/17 08:12:18;;;;;;;47.60;19.60;;;;;;;4.23;100.00;101183.22;5086748;28;20224;-86
2021/11/17 08:14:45;;;;;;;51.10;20.57;;;;;;;4.27;100.00;101177.22;5090274;28;20628;-85
2021/11/17 08:17:11;;;;;;;53.10;21.07;;;;;;;4.29;100.00;101177.22;5087820;28;20693;-86
2021/11/17 08:19:38;;;;;;;51.80;20.20;;;;;;;4.33;100.00;101176.44;5089922;28;20268;-87
2021/11/17 08:22:07;;;;;;;51.73;19.57;;;;;;;4.38;100.00;101171.28;5089120;28;20214;-84
2021/11/17 08:24:37;;;;;;;52.67;20.50;;;;;;;4.41;100.00;101173.91;5106899;28;20257;-89
2021/11/17 08:27:04;;;;;;;51.70;21.30;;;;;;;4.45;100.00;101173.94;5087458;28;20222;-84
2021/11/17 08:29:32;;;;;;;54.33;20.53;;;;;;;4.45;100.00;101179.09;5090958;28;20194;-87
2021/11/17 08:32:00;;;;;;;48.87;21.40;;;;;;;4.45;100.00;101175.63;5084401;28;20719;-88
2021/11/17 08:34:26;;;;;;;47.53;20.03;;;;;;;4.43;100.00;101175.63;5088258;28;20214;-85
2021/11/17 08:36:53;;;;;;;46.80;19.97;;;;;;;4.39;100.00;101173.03;5088294;28;20237;-84
2021/11/17 08:39:20;;;;;;;47.67;20.03;;;;;;;4.42;100.00;101178.22;5087712;28;20204;-90
2021/11/17 08:41:47;;;;;;;46.63;20.30;;;;;;;4.44;100.00;101177.38;5088331;28;20305;-87
2021/11/17 08:44:13;;;;;;;50.07;19.47;;;;;;;4.47;100.00;101179.13;5089424;28;20970;-85
2021/11/17 08:46:41;;;;;;;45.00;20.10;;;;;;;4.46;100.00;101179.97;5084691;28;20202;-85
2021/11/17 08:49:08;;;;;;;41.13;19.43;;;;;;;4.46;100.00;101175.66;5087667;28;20217;-88
2021/11/17 08:51:34;;;;;;;41.13;19.20;;;;;;;4.50;100.00;101177.44;5089006;28;20214;-87
2021/11/17 08:54:02;;;;;;;43.23;18.67;;;;;;;4.49;100.00;101175.69;5089293;28;20198;-85
2021/11/17 08:56:29;;;;;;;44.73;19.07;;;;;;;4.49;100.00;101175.69;5087467;28;20204;-84
2021/11/17 08:58:56;;;;;;;44.77;18.90;;;;;;;4.48;100.00;101176.53;5087775;28;20285;-87
2021/11/17 09:01:23;;;;;;;37.80;17.67;;;;;;;4.50;100.00;101182.59;5088640;28;20331;-85
2021/11/17 09:03:50;;;;;;;42.47;20.20;;;;;;;4.53;100.00;101174.84;5086797;28;20217;-85
2021/11/17 09:06:17;;;;;;;41.50;18.10;;;;;;;4.53;100.00;101172.25;5090528;28;20190;-83
2021/11/17 09:08:43;;;;;;;39.93;18.60;;;;;;;4.55;100.00;101177.44;5086761;28;20762;-83
2021/11/17 09:11:13;;;;;;;38.77;17.00;;;;;;;4.57;100.00;101183.47;5087774;28;20799;-84
2021/11/17 09:13:40;;;;;;;41.30;17.60;;;;;;;4.58;100.00;101184.38;5088734;28;20712;-86
2021/11/17 09:16:08;;;;;;;35.90;17.00;;;;;;;4.59;100.00;101179.22;5089988;28;20668;-87
2021/11/17 09:18:36;;;;;;;42.37;18.53;;;;;;;4.61;100.00;101179.19;5086032;28;20560;-87
2021/11/17 09:21:07;;;;;;;39.30;17.30;;;;;;;4.63;100.00;101186.13;5089079;28;20301;-87
2021/11/17 09:23:34;;;;;;;34.37;16.80;;;;;;;4.68;100.00;101181.84;5085958;28;20293;-84
2021/11/17 09:26:02;;;;;;;34.50;16.97;;;;;;;4.67;100.00;101184.44;5090522;28;20560;-85
2021/11/17 09:28:29;;;;;;;37.77;17.83;;;;;;;4.67;100.00;101193.03;5085144;28;20205;-84
2021/11/17 09:30:56;;;;;;;37.13;17.37;;;;;;;4.72;100.00;101183.59;5087507;28;20202;-85
2021/11/17 09:33:24;;;;;;;34.87;16.40;;;;;;;4.70;100.00;101185.31;5087870;28;20216;-85
2021/11/17 09:35:52;;;;;;;38.60;16.77;;;;;;;4.74;100.00;101176.72;5087767;28;20675;-85
2021/11/17 09:38:20;;;;;;;34.63;15.70;;;;;;;4.77;100.00;101170.72;5087255;28;20611;-86
2021/11/17 09:40:52;;;;;;;35.10;16.53;;;;;;;4.79;100.00;101178.47;5086918;28;20810;-85
2021/11/17 09:43:21;;;;;;;37.97;16.83;;;;;;;4.81;100.00;101177.63;5085916;28;20312;-86
2021/11/17 09:45:51;;;;;;;38.90;16.27;;;;;;;4.82;100.00;101165.56;5085954;28;20199;-85
2021/11/17 09:48:20;;;;;;;31.43;15.47;;;;;;;4.85;100.00;101174.19;5086505;28;20525;-85
2021/11/17 09:50:50;;;;;;;31.53;15.70;;;;;;;4.89;100.00;101169.91;5086742;28;20204;-86
2021/11/17 09:53:24;;;;;;;35.17;14.87;;;;;;;4.91;100.00;101171.66;5088613;28;20217;-86
2021/11/17 09:55:53;;;;;;;30.70;15.27;;;;;;;4.80;100.00;101169.88;5086267;28;20205;-85
2021/11/17 09:58:24;;;;;;;29.97;13.70;;;;;;;4.77;100.00;101178.47;5085132;28;20197;-86
2021/11/17 10:00:54;;;;;;;32.37;15.33;;;;;;;4.78;100.00;101177.59;5087039;28;20229;-87
2021/11/17 10:03:27;;;;;;;32.67;14.03;;;;;;;4.79;100.00;101175.91;5101365;28;20866;-84
2021/11/17 10:14:47;;;;;;;28.60;13.37;;;;;;;4.78;100.00;101164.69;5042085;28;20203;-85
2021/11/17 10:17:29;;;;;;;27.80;13.60;;;;;;;4.74;100.00;101166.38;5089680;28;20632;-86
2021/11/17 10:20:09;;;;;;;28.57;12.83;;;;;;;4.72;100.00;101168.09;5084855;28;20206;-85
2021/11/17 10:22:37;;;;;;;23.40;11.67;;;;;;;4.69;100.00;101168.06;5088625;28;20673;-87
2021/11/17 10:25:11;;;;;;;26.57;12.37;;;;;;;4.71;100.00;101165.50;5086880;28;20212;-85
2021/11/17 10:27:48;;;;;;;23.83;12.00;;;;;;;4.72;100.00;101167.25;5085266;28;20215;-86
2021/11/17 10:30:23;;;;;;;21.43;10.97;;;;;;;4.73;100.00;101164.66;5090709;28;20194;-87
2021/11/17 10:33:16;;;;;;;21.93;11.03;;;;;;;4.81;100.00;101166.44;5092187;28;20233;-88
2021/11/17 10:35:46;;;;;;;23.50;11.30;;;;;;;4.84;100.00;101169.03;5088564;28;20308;-86
2021/11/17 10:38:20;;;;;;;20.97;10.60;;;;;;;4.87;100.00;101159.59;5090034;28;20889;-86
2021/11/17 10:40:53;;;;;;;17.87;9.97;;;;;;;4.96;100.00;101151.03;5092126;28;20201;-86
2021/11/17 10:43:23;;;;;;;20.17;10.53;;;;;;;5.01;100.00;101151.03;5089099;28;20899;-86
2021/11/17 10:45:55;;;;;;;20.27;10.13;;;;;;;5.04;100.00;101149.31;5092797;28;20245;-89
2021/11/17 10:48:24;;;;;;;21.03;8.93;;;;;;;5.06;100.00;101142.44;5090829;28;20204;-87
2021/11/17 10:50:51;;;;;;;19.30;10.07;;;;;;;5.04;100.00;101139.00;5092350;28;20659;-84
2021/11/17 10:53:28;;;;;;;17.70;9.57;;;;;;;5.01;100.00;101138.09;5085477;28;20430;-85
2021/11/17 10:55:59;;;;;;;15.83;8.20;;;;;;;5.01;100.00;101140.69;5093384;28;20973;-86
2021/11/17 10:58:27;;;;;;;17.00;8.50;;;;;;;5.06;100.00;101137.28;5089674;28;20465;-85
2021/11/17 11:00:58;;;;;;;14.20;8.07;;;;;;;5.04;100.00;101132.97;5090178;28;20212;-85
2021/11/17 11:03:29;;;;;;;16.07;8.40;;;;;;;5.10;100.00;101144.19;5088165;28;20734;-88
2021/11/17 11:06:02;;;;;;;17.23;8.53;;;;;;;5.24;100.00;101141.69;5089788;28;20287;-85
2021/11/17 11:08:35;;;;;;;16.83;8.13;;;;;;;5.30;100.00;101138.25;5086968;28;20267;-84
2021/11/17 11:11:09;;;;;;;17.23;9.03;;;;;;;5.29;100.00;101139.09;5085266;28;20214;-85
2021/11/17 11:13:41;;;;;;;14.03;7.60;;;;;;;5.24;100.00;101143.38;5090495;28;20289;-87
2021/11/17 11:16:13;;;;;;;16.53;8.57;;;;;;;5.17;100.00;101141.63;5088757;28;20233;-88
2021/11/17 11:18:45;;;;;;;14.93;9.03;;;;;;;5.14;100.00;101132.16;5091397;28;20200;-84
2021/11/17 11:21:14;;;;;;;17.17;8.53;;;;;;;5.16;100.00;101130.44;5090921;28;20194;-87
2021/11/17 11:24:26;;;;;;;15.63;9.33;;;;;;;5.16;100.00;101127.84;5091401;28;20506;-85
2021/11/17 11:27:19;;;;;;;16.47;8.70;;;;;;;5.18;100.00;101126.13;5091039;28;20565;-85
2021/11/17 11:29:48;;;;;;;14.47;8.43;;;;;;;5.16;100.00;101114.06;5086821;28;20209;-88
2021/11/17 11:32:47;;;;;;;15.53;7.90;;;;;;;5.17;100.00;101115.78;5091500;28;20614;-88
2021/11/17 11:35:19;;;;;;;13.87;7.60;;;;;;;5.16;100.00;101116.66;5087107;28;20198;-87
2021/11/17 11:38:07;;;;;;;16.20;8.07;;;;;;;5.20;100.00;101110.63;5087426;28;20202;-85
2021/11/17 11:41:00;;;;;;;12.30;7.63;;;;;;;5.15;100.00;101114.91;5089374;28;20230;-91
2021/11/17 11:43:28;;;;;;;14.20;7.80;;;;;;;5.09;100.00;101118.34;5086225;28;20206;-87
2021/11/17 11:45:56;;;;;;;12.80;7.53;;;;;;;5.07;100.00;101120.06;5088628;28;20206;-85
2021/11/17 11:48:55;;;;;;;12.07;7.13;;;;;;;5.02;100.00;101112.28;5085188;28;20210;-84
2021/11/17 11:51:52;;;;;;;13.03;7.63;;;;;;;4.99;100.00;101125.19;5090893;28;20224;-86
2021/11/17 11:54:27;;;;;;;11.90;7.37;;;;;;;4.99;100.00;101119.16;5083022;28;20210;-83
2021/11/17 11:57:15;;;;;;;11.97;7.10;;;;;;;4.97;100.00;101121.72;5090058;28;22772;-83
2021/11/17 11:59:43;;;;;;;12.60;7.67;;;;;;;4.96;100.00;101124.28;5088767;28;20204;-86
2021/11/17 12:02:12;;;;;;;15.13;8.20;;;;;;;4.92;100.00;101119.13;5091750;28;20224;-86
2021/11/17 12:04:43;;;;;;;14.33;7.60;;;;;;;4.92;100.00;101131.16;5089380;28;20309;-85
2021/11/17 12:07:15;;;;;;;11.90;7.10;;;;;;;4.91;100.00;101121.72;5089007;28;20213;-86
2021/11/17 12:09:56;;;;;;;11.03;7.07;;;;;;;4.92;100.00;101124.31;5089196;28;20626;-86
2021/11/17 12:12:27;;;;;;;10.77;6.93;;;;;;;4.92;100.00;101123.41;5085146;28;20268;-87
2021/11/17 12:15:13;;;;;;;13.73;7.63;;;;;;;4.86;100.00;101128.56;5090828;28;20198;-85
2021/11/17 12:17:40;;;;;;;10.17;6.83;;;;;;;4.83;100.00;101131.97;5085420;28;20413;-85
2021/11/17 12:20:21;;;;;;;14.37;7.40;;;;;;;4.82;100.00;101137.13;5091287;28;20726;-88
2021/11/17 12:22:52;;;;;;;13.63;7.17;;;;;;;4.76;100.00;101144.88;5085230;28;20231;-87
2021/11/17 12:25:22;;;;;;;13.73;7.80;;;;;;;4.75;100.00;101141.44;5091675;28;20312;-85
2021/11/17 12:27:55;;;;;;;13.53;7.43;;;;;;;4.67;100.00;101135.34;5089168;28;20198;-85
2021/11/17 12:30:36;;;;;;;12.80;8.10;;;;;;;4.60;100.00;101142.19;5085532;28;20194;-88
2021/11/17 12:33:11;;;;;;;10.47;7.57;;;;;;;4.61;100.00;101137.88;5089213;28;20213;-88
2021/11/17 12:35:41;;;;;;;11.80;7.27;;;;;;;4.57;100.00;101137.00;5084576;28;20205;-87
2021/11/17 12:38:11;;;;;;;10.87;7.60;;;;;;;4.56;100.00;101143.03;5091361;28;20732;-87
2021/11/17 12:40:44;;;;;;;10.03;7.63;;;;;;;4.58;100.00;101143.03;5084939;28;20206;-87
2021/11/17 12:43:13;;;;;;;13.17;7.23;;;;;;;4.58;100.00;101146.47;5089384;28;20217;-87
2021/11/17 12:45:46;;;;;;;11.77;7.60;;;;;;;4.59;100.00;101155.09;5088443;28;20214;-86
2021/11/17 12:48:22;;;;;;;9.50;6.30;;;;;;;4.58;100.00;101150.78;5089814;28;20210;-88
2021/11/17 12:50:53;;;;;;;10.37;6.53;;;;;;;4.56;100.00;101150.78;5087765;28;20213;-87
2021/11/17 12:53:23;;;;;;;8.73;5.80;;;;;;;4.55;100.00;101152.47;5088642;28;20755;-85
2021/11/17 12:55:53;;;;;;;8.70;5.90;;;;;;;4.53;100.00;101149.03;5085636;28;20198;-87
2021/11/17 12:58:22;;;;;;;7.90;5.23;;;;;;;4.53;100.00;101158.50;5086885;28;20270;-88
2021/11/17 13:00:55;;;;;;;7.30;5.20;;;;;;;4.55;100.00;101164.53;5088206;28;20202;-86
2021/11/17 13:03:33;;;;;;;7.47;4.40;;;;;;;4.57;100.00;101161.97;5087141;28;20228;-86
2021/11/17 13:06:04;;;;;;;6.10;4.53;;;;;;;4.57;100.00;101159.38;5089697;28;20214;-87
2021/11/17 13:08:36;;;;;;;6.10;4.27;;;;;;;4.58;100.00;101149.06;5085155;28;21576;-85
2021/11/17 13:11:07;;;;;;;7.23;4.67;;;;;;;4.62;100.00;101148.22;5105001;28;20209;-88
2021/11/17 13:13:44;;;;;;;5.47;4.13;;;;;;;4.64;100.00;101143.91;5087922;28;20202;-88
2021/11/17 13:16:18;;;;;;;4.37;3.97;;;;;;;4.67;100.00;101148.25;5087205;28;20202;-85
2021/11/17 13:18:55;;;;;;;4.70;3.57;;;;;;;4.66;100.00;101151.69;5087936;28;20189;-87
2021/11/17 13:21:36;;;;;;;6.20;4.33;;;;;;;4.65;100.00;101157.72;5084710;28;20312;-91
2021/11/17 13:24:28;;;;;;;6.90;3.90;;;;;;;4.63;100.00;101157.72;5081605;28;20710;-86
2021/11/17 13:27:35;;;;;;;4.97;3.63;;;;;;;4.61;100.00;101156.84;5087042;28;20230;-84
2021/11/17 13:30:18;;;;;;;4.20;2.97;;;;;;;4.57;100.00;101162.81;5088638;28;20205;-85
2021/11/17 13:32:49;;;;;;;4.20;3.43;;;;;;;4.57;100.00;101146.47;5085424;28;20231;-84
2021/11/17 13:35:32;;;;;;;8.00;3.77;;;;;;;4.59;100.00;101150.81;5087733;28;20219;-87
2021/11/17 13:38:11;;;;;;;4.53;2.90;;;;;;;4.57;100.00;101147.31;5084970;28;20205;-86
2021/11/17 13:40:38;;;;;;;4.17;3.00;;;;;;;4.60;100.00;101152.50;5085233;28;21105;-84
2021/11/17 13:43:05;;;;;;;3.10;2.70;;;;;;;4.61;100.00;101148.19;5086869;28;20222;-84
2021/11/17 13:45:32;;;;;;;4.23;2.70;;;;;;;4.58;100.00;101151.66;5087724;28;20221;-90
2021/11/17 13:47:59;;;;;;;3.63;3.03;;;;;;;4.58;100.00;101149.06;5088424;28;20189;-89
2021/11/17 13:50:34;;;;;;;4.77;3.20;;;;;;;4.57;100.00;101152.47;5087375;28;20768;-84
2021/11/17 13:53:01;;;;;;;3.60;3.00;;;;;;;4.52;100.00;101155.06;5089723;28;20221;-85
2021/11/17 13:55:32;;;;;;;4.37;2.90;;;;;;;4.51;100.00;101155.03;5085240;28;20664;-84
2021/11/17 13:57:59;;;;;;;5.87;4.00;;;;;;;4.51;100.00;101155.03;5084372;28;20874;-86
2021/11/17 14:00:26;;;;;;;5.27;3.63;;;;;;;4.51;100.00;101149.88;5084068;28;20210;-90
2021/11/17 14:02:54;;;;;;;5.13;3.00;;;;;;;4.50;100.00;101148.13;5090839;28;20214;-85
2021/11/17 14:05:22;;;;;;;5.97;3.90;;;;;;;4.50;100.00;101164.50;5085128;28;20695;-86
2021/11/17 14:07:50;;;;;;;3.83;3.17;;;;;;;4.48;100.00;101166.19;5091306;28;20208;-88
2021/11/17 14:10:18;;;;;;;4.37;3.23;;;;;;;4.50;100.00;101163.63;5087972;28;20205;-83
2021/11/17 14:12:46;;;;;;;3.97;3.03;;;;;;;4.47;100.00;101150.72;5092842;28;20214;-84
2021/11/17 14:15:12;;;;;;;4.83;2.97;;;;;;;4.46;100.00;101161.88;5082073;28;20226;-87
2021/11/17 14:17:39;;;;;;;4.90;3.30;;;;;;;4.47;100.00;101150.72;5088436;28;20207;-86
2021/11/17 14:20:09;;;;;;;4.13;3.10;;;;;;;4.47;100.00;101148.13;5087038;28;20660;-86
2021/11/17 14:22:37;;;;;;;4.33;3.53;;;;;;;4.42;100.00;101150.66;5091605;28;20289;-90